Nearby METAR Reports

 

KBJC - Broomfield/Jeffc, Colorado, USA
Distance from station: NNW 11mi, 17km
Updated: 08/17/2017 8:47pm
Partly cloudy
Partly cloudy
 Wind from W
Wind: W 8 mph , 13 km/h
Temperature: 70°F , 21°C
Dew Point: 37°F , 3°C
Humidity: 31%
Barometer: 30.15 inHg , 1021 hPa
Clouds: Partly cloudy
Visibility: 30 miles , 48 km
Cloud details: Partly cloudy 10000 ft
2017/08/18 02:47 KBJC 180247Z 26007KT 30SM SCT100 21/03 A3015
KBKF - Buckley Angb/Den, Colorado, USA
Distance from station: E 16mi, 25km
Updated: 08/17/2017 8:58pm
Few Clouds
Few Clouds
 Wind from SSW
Wind: SSW 10 mph , 17 km/h
Temperature: 68°F , 20°C
Dew Point: 46°F , 8°C
Humidity: 46%
Barometer: 30.15 inHg , 1021 hPa
Clouds: Few Clouds
Visibility: 10 miles , 16 km
Cloud details: Few Clouds 15000 ft
2017/08/18 02:58 KBKF 180258Z 20009KT 10SM FEW150 20/08 A3015 RMK AO2A SLP136 T02000075 55000
 
KAPA - Denver/Arapahoe, Colorado, USA
Distance from station: SE 16mi, 26km
Updated: 08/17/2017 8:53pm
Few Clouds
Few Clouds
 Wind from SSW
Wind: SSW 13 mph , 20 km/h
Temperature: 72°F , 22°C
Dew Point: 41°F , 5°C
Humidity: 33%
Barometer: 30.16 inHg , 1021.3 hPa
Clouds: Few Clouds
Visibility: 10 miles , 16 km
Cloud details: Few Clouds 12000 ft
Few Clouds 22000 ft
2017/08/18 02:53 KAPA 180253Z 21011KT 10SM FEW120 FEW220 22/05 A3016 RMK AO2 SLP142 T02170050 55000
KEIK - Erie Muni, Colorado, USA
Distance from station: N 18mi, 29km
Updated: 08/17/2017 8:56pm
Clear
Clear
 Wind from calm
Wind: Calm
Temperature: 70°F , 21°C
Dew Point: 37°F , 3°C
Humidity: 31%
Barometer: 30.15 inHg , 1021 hPa
Clouds: Clear
Visibility: 10 miles , 16 km
2017/08/18 02:56 KEIK 180256Z AUTO 00000KT 10SM CLR 21/03 A3015 RMK AO2 T02100034
 
KBDU - Boulder Muni, Colorado, USA
Distance from station: NNW 22mi, 35km
Updated: 08/17/2017 8:56pm
Clear
Clear
 Wind from calm
Wind: Calm
Temperature: 73°F , 23°C
Dew Point: 39°F , 4°C
Humidity: 29%
Barometer: 30.11 inHg , 1019.6 hPa
Clouds: Clear
Visibility: 10 miles , 16 km
2017/08/18 02:56 KBDU 180256Z AUTO 00000KT 10SM CLR 23/04 A3011 RMK AO2
KDEN - Denver (dia), Colorado, USA
Distance from station: ENE 22mi, 35km
Updated: 08/17/2017 8:53pm
Few Clouds
Few Clouds
 Wind from SSE
Wind: SSE 12 mph , 19 km/h
Temperature: 64°F , 18°C
Dew Point: 43°F , 6°C
Humidity: 46%
Barometer: 30.12 inHg , 1020 hPa
Clouds: Few Clouds
Visibility: 10 miles , 16 km
Cloud details: Few Clouds 11000 ft
Few Clouds 22000 ft
2017/08/18 02:53 KDEN 180253Z 16010KT 10SM FEW110 FEW220 18/06 A3012 RMK AO2 SLP127 T01830061 53003
 
KFTG - Denver F. Range, Colorado, USA
Distance from station: E 26mi, 42km
Updated: 08/17/2017 8:56pm
Clear
Clear
 Wind from SE
Wind: SE 8 mph , 13 km/h
Temperature: 68°F , 20°C
Dew Point: 46°F , 8°C
Humidity: 46%
Barometer: 30.14 inHg , 1020.7 hPa
Clouds: Clear
Visibility: 10 miles , 16 km
2017/08/18 02:56 KFTG 180256Z AUTO 14007KT 10SM CLR 20/08 A3014 RMK AO2
KLMO - Longmont/Vbrand, Colorado, USA
Distance from station: NNW 29mi, 47km
Updated: 08/17/2017 8:55pm
Clear
Clear
 Wind from WNW
Wind: WNW 6 mph , 9 km/h
Temperature: 68°F , 20°C
Dew Point: 50°F , 10°C
Humidity: 53%
Barometer: 30.12 inHg , 1020 hPa
Clouds: Clear
Visibility: 10 miles , 16 km
2017/08/18 02:55 KLMO 180255Z AUTO 30005KT 10SM CLR 20/10 A3012 RMK AO2 T01960097
 
K0CO - Berthoud Pass, Colorado, USA
Distance from station: W 39mi, 62km
Updated: 08/17/2017 9:00pm
Clear
Clear
 Wind from WNW
Wind: WNW 35 mph , 56 km/h, Gust: 41 mph , 67 km/h
Temperature: 41°F , 5°C
Wind Chill: 29°F , -2°C
Dew Point: 36°F , 2°C
Humidity: 81%
Barometer: 30.63 inHg , 1037.3 hPa
Clouds: Clear
Visibility: 10 miles , 16 km
2017/08/18 03:00 K0CO 180300Z AUTO 30030G36KT 10SM CLR 05/02 A3063 RMK AO2
KMNH - Monument/Elbert, Colorado, USA
Distance from station: SSE 43mi, 68km
Updated: 08/17/2017 8:50pm
Clear
Clear
 Wind from SW
Wind: SW 12 mph , 19 km/h
Temperature: 59°F , 15°C
Dew Point: 43°F , 6°C
Humidity: 55%
Barometer: 30.29 inHg , 1025.7 hPa
Clouds: Clear
Visibility: 10 miles , 16 km
2017/08/18 02:50 KMNH 180250Z AUTO 22010KT 10SM CLR 15/06 A3029 RMK AO2
 
KFNL - Ft Collins/Lovel, Colorado, USA
Distance from station: N 48mi, 78km
Updated: 08/17/2017 8:56pm
Clear
Clear
 Wind from NW
Wind: NW 3 mph , 6 km/h
Temperature: 70°F , 21°C
Dew Point: 48°F , 9°C
Humidity: 46%
Barometer: 30.11 inHg , 1019.6 hPa
Clouds: Clear
Visibility: 10 miles , 16 km
2017/08/18 02:56 KFNL 180256Z AUTO 31003KT 10SM CLR 21/09 A3011 RMK AO2 SLP141 6//// T02110094 53009 PNO $